Date,TemperatureHighF,TemperatureAvgF,TemperatureLowF,DewpointHighF,DewpointAvgF,DewpointLowF,HumidityHigh,HumidityAvg,HumidityLow,PressureMaxIn,PressureMinIn,WindSpeedMaxMPH,WindSpeedAvgMPH,GustSpeedMaxMPH,PrecipitationSumIn
2014-1-1,10,6,3,-9,-13,-18,46,39,28,30.20,30.09,8,4,15,0.00
2014-1-2,39,5,-10,21,-16,-100,64,37,20,30.27,29.27,8,3,13,0.00
2014-1-3,27,9,-13,8,-12,-33,47,36,19,29.89,29.11,7,2,14,0.00
2014-1-4,35,21,8,17,0,-16,48,40,32,29.63,29.10,9,5,16,0.00
2014-1-5,8,0,-13,-15,-29,-47,36,25,12,29.84,29.62,11,6,20,0.00
2014-1-6,-4,-10,-19,-26,-40,-53,32,21,10,29.84,29.73,10,5,21,0.00
2014-1-7,9,0,-10,-17,-24,-34,39,30,22,29.74,29.58,8,2,12,0.00
2014-1-8,12,3,-3,-18,-22,-34,42,30,10,29.94,29.72,4,1,8,0.00
2014-1-9,22,9,-5,9,-10,-25,60,42,19,29.92,29.47,4,1,8,0.00
2014-1-10,34,30,20,28,24,8,85,78,59,29.49,28.99,5,1,9,0.15
2014-1-11,32,29,23,27,19,10,84,68,42,29.30,28.99,8,4,16,0.00
2014-1-12,45,36,22,24,18,14,76,49,31,29.27,28.95,8,3,14,0.00
2014-1-13,40,35,30,24,15,6,61,44,28,29.25,29.05,8,3,15,0.00
2014-1-14,37,27,12,26,8,-6,65,45,32,29.58,29.02,14,6,27,0.04
2014-1-15,27,16,6,2,-7,-16,45,35,23,29.66,29.10,8,3,14,0.00
2014-1-16,36,25,5,19,1,-19,51,35,21,29.39,29.00,12,6,23,0.00
2014-1-17,21,11,4,-5,-11,-19,45,35,22,29.51,29.37,10,3,17,0.00
2014-1-18,23,17,8,8,-2,-9,57,42,28,29.45,29.00,6,2,12,0.00
2014-1-19,45,33,15,19,11,0,56,41,24,29.35,29.04,8,3,14,0.07
2014-1-20,40,28,5,21,13,-11,68,54,36,29.78,29.23,10,4,17,0.00
2014-1-21,9,2,-7,-11,-24,-42,46,28,11,29.91,29.53,8,2,15,0.00
2014-1-22,19,8,-6,-1,-14,-31,46,35,22,29.92,29.43,11,5,18,0.00
2014-1-23,4,-4,-11,-22,-29,-39,40,28,13,30.19,29.91,8,3,14,0.00
2014-1-24,37,22,-3,28,-9,-27,73,28,11,29.92,29.02,10,4,22,0.01
2014-1-25,36,20,12,23,-13,-33,60,25,10,29.43,29.05,12,4,20,0.00
2014-1-26,39,23,-1,19,0,-30,54,36,21,29.60,28.85,15,6,28,0.01
2014-1-27,32,-2,-9,21,-30,-45,64,25,10,29.97,29.37,12,4,24,0.28
2014-1-28,14,2,-8,-21,-29,-38,35,23,10,29.95,29.72,8,2,15,0.00
2014-1-29,34,19,-1,-9,-20,-30,30,17,10,29.73,29.21,8,3,15,0.00
2014-1-30,39,25,5,23,-3,-18,68,33,12,29.59,28.98,11,5,21,0.00
2014-1-31,39,12,1,21,-17,-100,64,28,10,30.00,29.59,8,2,13,0.28
2014-2-1,26,14,6,4,-5,-15,53,43,28,30.03,29.74,6,2,11,0.00
2014-2-2,16,4,-7,-13,-21,-31,45,32,13,30.17,30.02,6,2,11,0.00
2014-2-3,28,12,-3,-4,-14,-24,46,32,10,30.11,30.05,4,1,8,0.00
2014-2-4,21,16,9,3,-1,-5,55,47,34,30.17,30.03,8,3,14,0.00
2014-2-5,11,5,-5,-3,-16,-26,54,38,21,30.34,30.06,10,5,17,0.00
2014-2-6,10,0,-11,-16,-25,-34,42,29,14,30.32,30.17,9,4,17,0.00
2014-2-7,19,6,-9,-15,-23,-32,42,27,10,30.17,30.01,7,2,12,0.00
2014-2-8,24,14,9,-2,-6,-16,54,41,28,30.02,29.85,3,1,7,0.00
2014-2-9,32,2,-7,-5,-20,-28,52,35,10,30.19,29.95,6,3,12,0.00
2014-2-10,7,-4,-12,-25,-30,-41,38,28,10,30.31,30.18,6,2,11,0.00
2014-2-11,18,0,-21,-12,-29,-43,38,25,10,30.30,29.99,4,1,11,0.00
2014-2-12,28,16,6,4,-4,-14,57,41,22,29.99,29.69,5,2,10,0.00
2014-2-13,44,25,11,14,4,-8,60,42,23,29.70,29.37,10,3,22,0.08
2014-2-14,18,11,-2,-2,-9,-18,53,41,26,29.88,29.51,8,3,14,0.00
2014-2-15,25,10,-6,10,-8,-23,53,45,30,29.87,29.62,7,1,11,0.00
2014-2-16,29,22,16,8,0,-15,53,41,14,30.03,29.78,7,3,14,0.01
2014-2-17,43,29,20,19,10,2,64,45,27,29.86,29.52,11,4,23,0.15
2014-2-18,52,38,23,22,10,-4,58,35,10,29.67,29.39,7,2,11,0.02
2014-2-19,47,36,28,22,18,13,65,48,28,29.73,29.51,6,2,11,0.00
2014-2-20,39,34,30,31,28,20,87,80,52,29.51,28.94,20,6,34,0.47
2014-2-21,33,24,16,25,2,-13,81,40,16,29.67,29.30,15,6,28,0.00
2014-2-22,33,22,13,8,-7,-22,52,30,10,29.96,29.67,5,2,9,0.05
2014-2-23,25,16,8,-4,-12,-28,42,31,10,30.12,29.96,8,3,14,0.00
2014-2-24,21,13,5,-1,-11,-28,55,35,12,30.19,30.06,7,2,12,0.00
2014-2-25,14,6,-3,-2,-19,-35,55,32,10,30.18,30.08,10,4,17,0.01
2014-2-26,25,8,-7,-3,-21,-34,43,26,10,30.18,29.57,11,4,21,0.00
2014-2-27,12,0,-8,-15,-34,-46,30,18,10,30.01,29.71,10,3,17,0.00
2014-2-28,36,16,-7,10,-10,-31,62,33,10,29.89,29.66,5,3,14,0.00
2014-3-1,20,6,-2,7,-10,-19,61,46,34,30.26,29.88,8,5,14,0.00
2014-3-2,30,1,-7,-9,-23,-39,44,31,10,30.30,29.30,7,4,14,0.00
2014-3-3,28,4,-14,-6,-27,-39,45,25,10,29.92,29.30,4,1,10,0.00
2014-3-4,30,18,6,-1,-13,-27,42,27,10,29.65,29.49,8,2,13,0.02
2014-3-5,24,21,18,3,1,-2,51,42,34,29.78,29.59,11,6,16,0.00
2014-3-6,36,24,16,12,3,-8,54,41,15,29.75,29.34,7,2,14,0.00
2014-3-7,43,33,26,22,15,10,62,48,33,29.51,29.21,8,4,14,0.00
2014-3-8,38,28,16,17,10,4,64,48,27,29.71,29.50,6,3,11,0.00
2014-3-9,48,33,14,21,12,2,62,43,22,29.67,27.32,7,3,11,0.00
2014-3-10,57,46,38,28,18,6,64,35,15,29.18,29.10,5,2,10,0.00
2014-3-11,43,39,28,29,22,-12,66,52,16,30.15,29.09,10,4,17,0.00
2014-3-12,37,30,24,15,6,-6,52,37,18,30.37,30.16,9,4,17,0.00
2014-3-13,65,42,23,20,14,2,59,36,10,30.34,29.93,7,2,13,0.00
2014-3-14,52,44,35,21,15,6,53,32,18,30.22,29.84,11,4,23,0.00
2014-3-15,44,34,28,24,15,-1,74,49,17,30.48,30.21,11,3,19,0.00
2014-3-16,35,26,19,17,0,-21,63,34,10,30.48,29.57,10,3,16,0.01
2014-3-17,50,32,19,10,2,-10,54,31,10,29.78,29.29,7,2,14,0.00
2014-3-18,55,40,33,31,17,7,77,40,19,29.34,29.24,10,2,18,0.09
2014-3-19,42,35,30,34,21,10,81,58,33,29.71,29.31,8,3,17,0.01
2014-3-20,55,38,26,26,16,-4,74,44,10,29.75,29.60,6,2,11,0.00
2014-3-21,42,18,-7,22,-2,-44,57,41,11,29.87,29.48,5,2,10,0.00
2014-3-22,34,26,11,8,-7,-23,47,25,10,30.19,29.62,9,5,17,0.14
2014-3-23,36,25,14,2,-11,-25,42,23,10,30.25,30.09,6,2,11,0.00
2014-3-24,38,28,22,22,10,-1,67,46,33,30.10,29.85,7,2,11,0.04
2014-3-25,31,23,16,10,-6,-26,54,30,10,30.05,29.86,11,4,18,0.00
2014-3-26,52,34,14,25,-4,-16,50,25,10,29.94,29.47,9,3,24,0.01
2014-3-27,51,43,36,46,36,25,84,76,45,29.49,29.01,10,3,17,0.53
2014-3-28,39,35,26,29,20,-18,75,56,13,30.14,29.35,11,2,17,0.73
2014-3-29,60,41,31,22,12,-5,62,36,10,30.23,30.11,5,2,8,0.01
2014-3-30,72,51,34,22,14,1,56,29,10,30.12,29.78,8,2,15,0.00
2014-3-31,76,53,30,38,20,4,57,30,10,29.78,29.34,13,4,26,0.12
2014-4-1,46,34,22,22,6,-2,51,31,17,30.03,29.68,14,6,28,0.01
2014-4-2,52,41,29,24,15,1,66,39,13,30.08,29.85,16,6,24,0.00
2014-4-3,50,41,36,36,30,18,84,65,35,29.86,29.49,14,7,24,0.13
2014-4-4,43,36,30,35,20,10,85,54,25,30.05,29.49,12,6,21,0.05
2014-4-5,64,42,24,24,11,-5,70,36,10,30.14,29.98,4,2,9,0.00
2014-4-6,67,50,37,32,20,4,50,33,10,29.99,29.82,6,2,11,0.00
2014-4-7,66,50,33,36,24,3,64,40,10,29.84,29.66,8,2,13,0.06
2014-4-8,57,47,37,28,17,-3,63,35,10,29.97,29.73,10,4,16,0.00
2014-4-9,74,53,28,24,13,0,66,28,10,29.97,29.62,9,3,16,0.00
2014-4-10,68,57,42,30,12,-4,45,19,10,29.94,29.54,11,4,17,0.00
2014-4-11,79,57,37,21,11,-3,47,20,10,29.98,29.83,11,2,20,0.00
2014-4-12,89,68,48,52,21,-1,84,20,10,29.86,29.44,15,2,23,1.39
2014-4-13,59,47,35,55,44,31,96,90,83,29.67,29.48,13,5,23,1.54
2014-4-14,41,33,29,31,13,-14,93,52,10,30.06,29.59,12,6,19,0.02
2014-4-15,50,34,25,11,-4,-20,46,24,10,30.14,29.99,7,2,14,0.00
2014-4-16,64,49,33,28,5,-5,50,20,10,29.99,29.73,9,4,17,0.00
2014-4-17,54,40,33,30,17,-2,60,42,10,30.26,29.83,12,4,20,0.00
2014-4-18,69,47,26,24,11,-5,70,31,10,30.32,30.14,8,2,13,0.00
2014-4-19,80,60,38,27,15,0,58,22,10,30.19,29.98,8,3,16,0.00
2014-4-20,88,69,53,37,24,14,54,21,10,30.03,29.85,6,2,11,0.05
2014-4-21,73,63,49,50,35,9,68,39,10,29.98,29.87,10,3,17,0.00
2014-4-22,68,53,38,25,12,-1,51,24,10,30.08,29.97,9,3,15,0.00
2014-4-23,53,47,43,33,19,-3,62,36,10,30.06,29.78,13,6,22,0.20
2014-4-24,55,48,44,46,37,30,77,65,51,29.81,29.60,11,4,21,0.54
2014-4-25,80,59,39,42,25,6,82,39,10,29.81,29.71,7,2,14,0.01
2014-4-26,71,57,45,30,18,5,55,26,10,29.87,29.69,20,8,30,0.00
2014-4-27,65,52,42,50,34,16,80,52,22,29.80,29.41,22,12,34,0.69
2014-4-28,54,51,49,48,45,41,86,79,67,29.50,28.39,21,11,58,0.40
2014-4-29,50,45,36,46,41,31,96,88,79,29.65,29.37,8,4,17,0.06
2014-4-30,42,39,36,37,32,29,88,76,66,29.73,29.64,6,4,16,0.26
2014-5-1,51,44,40,37,33,28,81,64,41,29.85,29.67,6,4,16,0.01
2014-5-2,70,54,0,46,28,6,72,45,10,29.84,29.56,8,3,19,0.00
2014-5-3,70,57,0,51,42,35,82,59,31,30.00,29.63,8,4,21,0.00
2014-5-4,62,52,45,42,39,35,86,64,45,30.13,29.93,11,4,18,0.00
2014-5-5,70,57,44,43,38,31,68,50,34,29.99,29.92,11,6,22,0.00
2014-5-6,74,56,0,46,41,34,73,57,35,29.98,29.89,13,8,29,0.00
2014-5-7,92,73,54,68,58,42,76,60,42,29.91,29.78,12,3,19,0.00
2014-5-8,83,74,63,67,64,60,93,72,58,29.92,29.81,5,2,14,0.08
2014-5-9,70,57,48,61,45,35,95,67,30,30.05,29.82,8,4,20,0.01
2014-5-10,85,62,43,54,45,38,88,58,21,30.09,29.93,4,1,14,0.00
2014-5-11,82,65,51,67,60,48,97,85,57,30.13,29.92,7,2,14,0.17
2014-5-12,75,63,49,63,58,44,97,85,63,30.10,29.86,8,2,20,0.83
2014-5-13,59,50,45,44,40,34,83,68,47,30.43,30.08,5,3,17,0.00
2014-5-14,63,52,35,45,38,29,78,59,40,30.45,30.26,3,1,10,0.00
2014-5-15,54,45,42,45,38,31,87,75,64,30.28,30.20,4,2,12,0.01
2014-5-16,56,47,35,40,34,25,81,61,33,30.31,30.23,3,1,8,0.01
2014-5-17,71,54,34,38,33,25,91,50,21,30.34,30.26,6,1,11,0.00
2014-5-18,76,62,45,48,39,35,72,47,25,30.38,30.22,4,2,11,0.00
2014-5-19,80,65,54,60,53,41,76,65,49,30.26,29.94,5,2,17,0.02
2014-5-20,90,75,62,66,59,54,85,60,35,30.05,29.91,6,1,14,0.00
2014-5-21,86,72,57,60,52,44,85,53,24,30.28,30.00,4,2,11,0.00
2014-5-22,86,66,50,51,46,35,85,54,18,30.43,30.26,3,1,9,0.00
2014-5-23,86,68,49,50,44,38,79,46,19,30.42,30.30,4,1,11,0.00
2014-5-24,86,68,51,54,50,44,80,56,29,30.39,30.24,4,2,12,0.00
2014-5-25,81,68,56,65,58,48,82,71,56,30.27,30.12,4,1,13,0.00
2014-5-26,86,73,63,62,58,47,85,62,34,30.19,30.08,4,1,14,0.02
2014-5-27,90,74,61,67,58,44,81,59,30,30.13,30.06,4,1,12,0.02
2014-5-28,84,72,0,62,56,49,76,57,35,30.21,29.91,4,2,14,0.00
2014-5-29,92,75,59,65,59,51,77,59,39,30.01,29.90,7,3,16,0.00
2014-5-30,94,79,63,66,61,51,78,57,37,30.05,29.95,5,2,14,0.00
2014-5-31,90,74,69,70,61,54,83,64,45,30.04,29.88,4,1,12,0.92
2014-6-1,91,78,67,69,55,19,96,51,10,29.90,29.67,5,1,15,0.01
2014-6-2,86,74,66,64,40,8,91,36,10,29.84,29.67,6,3,17,0.05
2014-6-3,86,70,59,63,55,6,84,60,10,29.95,29.73,2,1,11,0.39
2014-6-4,76,68,60,55,31,3,64,28,10,29.85,29.46,13,2,24,0.04
2014-6-5,81,69,56,60,35,0,77,36,10,29.92,29.81,6,1,15,0.00
2014-6-6,94,74,58,64,53,32,77,51,23,29.92,29.82,3,1,7,0.00
2014-6-7,75,68,61,61,52,43,83,58,39,29.93,29.81,4,0,11,0.08
2014-6-8,74,65,57,57,47,31,91,57,26,30.01,29.92,4,2,11,0.00
2014-6-9,78,67,57,56,43,1,93,46,10,29.95,29.82,5,2,11,0.00
2014-6-10,74,67,61,57,54,48,82,65,53,29.86,29.76,6,3,14,0.00
2014-6-11,93,74,58,58,53,43,79,51,26,29.77,29.66,4,1,14,0.00
2014-6-12,79,70,59,60,52,43,74,55,32,29.93,29.67,5,2,17,0.00
2014-6-13,88,68,50,50,45,38,83,48,18,30.02,29.87,4,1,9,0.00
2014-6-14,85,71,0,60,54,47,76,56,38,29.95,29.78,5,2,19,0.00
2014-6-15,88,75,67,64,59,53,75,59,37,29.97,29.59,6,2,17,0.00
2014-6-16,88,77,63,71,64,57,85,66,47,30.03,29.69,5,2,18,0.52
2014-6-17,89,77,63,71,44,5,65,35,10,29.94,29.74,4,1,11,0.85
2014-6-18,88,79,66,58,46,9,52,33,10,29.96,29.82,4,1,12,0.19
2014-6-19,78,71,65,55,20,8,56,18,10,30.02,29.88,11,2,27,1.10
2014-6-20,99,77,65,75,52,16,99,50,10,30.04,29.92,2,0,8,0.01
2014-6-21,95,79,68,71,63,49,76,59,36,29.99,29.88,3,1,10,0.01
2014-6-22,79,68,65,63,51,25,76,56,14,29.99,29.86,8,1,24,0.65
2014-6-23,87,74,66,72,48,13,99,54,10,29.94,29.87,2,0,7,0.00
2014-6-24,88,76,63,66,52,12,70,49,10,30.01,29.93,3,1,9,0.00
2014-6-25,91,78,63,68,61,46,77,57,33,30.07,29.99,2,1,9,0.00
2014-6-26,86,74,65,64,53,32,77,52,17,30.07,29.83,3,1,11,0.02
2014-6-27,78,72,67,74,61,32,99,71,19,29.86,29.75,3,1,14,0.78
2014-6-28,87,75,67,75,50,18,99,53,10,29.81,29.69,5,1,17,1.25
2014-6-29,89,74,63,73,52,14,99,56,10,29.88,29.69,4,1,17,0.11
2014-6-30,84,70,63,71,50,10,99,64,10,29.79,29.52,8,1,27,0.90
2014-7-1,76,67,63,64,36,8,99,49,10,29.71,29.65,7,2,18,0.01
2014-7-2,66,62,0,52,48,14,70,59,47,29.98,0.00,2,0,8,0.01
2014-7-3,86,67,51,57,45,5,92,52,10,30.12,29.97,2,0,8,0.00
2014-7-4,86,70,52,63,54,41,92,61,35,30.17,30.08,3,1,9,0.00
2014-7-5,73,66,61,69,52,13,99,69,10,30.09,29.86,3,1,15,0.50
2014-7-6,90,77,66,76,47,14,99,50,10,29.86,29.59,3,1,11,0.00
2014-7-7,89,79,68,70,48,10,68,39,10,29.72,29.55,3,1,9,0.00
2014-7-8,84,73,65,63,52,25,74,49,19,29.78,29.56,5,2,17,0.00
2014-7-9,88,73,58,63,56,46,75,57,38,29.91,29.77,3,1,10,0.00
2014-7-10,89,74,62,65,59,52,78,60,42,29.99,29.91,2,1,9,0.00
2014-7-11,80,72,65,63,59,55,76,64,51,29.98,29.85,3,1,11,0.00
2014-7-12,86,75,67,76,52,18,99,56,10,29.93,29.77,3,0,8,0.48
2014-7-13,89,75,64,73,55,17,99,60,10,29.88,29.77,3,1,13,0.01
2014-7-14,77,68,57,60,52,47,79,58,42,29.89,29.77,4,2,16,0.00
2014-7-15,78,63,53,56,51,48,85,67,42,29.96,29.88,3,1,11,0.00
2014-7-16,83,67,50,59,53,46,87,64,41,29.95,29.85,2,0,8,0.00
2014-7-17,86,70,53,61,55,45,87,62,37,29.98,29.91,2,0,8,0.00
2014-7-18,86,73,60,64,59,52,82,64,46,30.00,29.89,2,0,9,0.00
2014-7-19,86,74,65,66,60,54,81,63,47,29.92,29.83,2,0,8,0.00
2014-7-20,89,76,64,70,61,48,81,62,38,29.88,29.77,2,1,14,0.00
2014-7-21,93,80,68,74,62,45,75,56,33,29.84,29.77,4,1,14,0.00
2014-7-22,96,83,71,72,60,39,73,47,19,29.99,29.77,3,1,10,0.01
2014-7-23,89,75,63,62,54,37,85,51,24,30.09,29.98,4,1,11,0.00
2014-7-24,86,71,59,66,58,46,88,65,41,30.05,29.78,4,1,9,0.04
2014-7-25,84,72,63,60,51,19,71,51,11,29.93,29.68,3,1,13,0.81
2014-7-26,93,78,66,71,50,21,68,40,12,29.78,29.67,4,1,11,0.00
2014-7-27,78,73,66,62,51,18,78,50,14,29.93,29.73,5,2,17,0.00
2014-7-28,80,68,58,61,54,31,82,61,24,30.07,29.92,2,1,9,0.00
2014-7-29,84,70,56,62,55,41,84,61,36,30.02,29.93,2,1,10,0.00
2014-7-30,88,72,58,65,58,50,84,64,42,29.98,29.92,2,0,7,0.00
2014-7-31,89,73,59,66,58,46,86,61,38,29.98,29.90,3,0,10,0.00
2014-8-1,91,74,58,67,59,48,85,63,40,29.98,29.91,2,0,6,0.00
2014-8-2,92,75,59,68,60,49,85,62,39,30.03,29.95,3,0,7,0.00
2014-8-3,94,74,63,71,59,33,82,63,19,30.04,29.90,2,0,8,0.57
2014-8-4,93,75,65,72,58,34,91,59,22,29.97,29.88,4,0,16,0.26
2014-8-5,84,71,62,67,49,15,91,51,10,29.99,29.91,2,1,8,0.01
2014-8-6,74,68,66,48,36,12,50,33,10,29.98,29.89,4,1,8,0.28
2014-8-7,74,69,66,45,28,10,46,25,10,29.90,29.86,7,3,17,0.01
2014-8-8,82,73,64,65,40,8,75,39,10,29.95,29.88,6,2,13,0.00
2014-8-9,86,72,0,68,54,26,82,54,17,29.96,29.89,4,2,10,0.00
2014-8-10,85,73,62,68,55,23,81,57,15,29.98,29.87,3,1,8,0.00
2014-8-11,78,70,63,60,48,14,78,51,10,29.88,29.83,4,1,13,0.00
2014-8-12,83,69,57,60,52,28,80,56,22,29.94,29.86,3,1,10,0.00
2014-8-13,89,72,56,66,59,50,86,66,43,30.00,29.91,3,1,8,0.00
2014-8-14,84,71,60,68,60,49,84,68,48,30.00,29.89,4,1,9,0.00
2014-8-15,77,68,0,59,53,47,77,58,3,29.94,29.80,2,0,8,0.04
2014-8-16,87,73,65,67,48,15,74,46,10,29.93,29.86,4,1,10,0.00
2014-8-17,93,76,63,73,54,17,83,51,10,29.98,29.88,3,0,8,0.00
2014-8-18,91,78,67,73,60,37,76,56,22,29.94,29.71,2,1,8,0.00
2014-8-19,90,77,67,70,59,47,84,55,37,29.82,29.70,3,1,12,0.00
2014-8-20,75,69,62,62,53,46,83,57,37,29.92,29.80,3,0,8,0.12
2014-8-21,90,77,68,73,49,16,99,48,10,29.92,29.82,2,1,9,0.06
2014-8-22,98,81,72,80,61,20,87,56,10,29.95,29.85,2,0,5,0.07
2014-8-23,86,76,71,70,55,18,88,57,10,30.00,29.88,5,2,13,0.54
2014-8-25,98,81,0,77,66,37,82,61,17,30.04,29.90,2,0,7,0.64
2014-8-26,86,70,0,68,63,57,99,76,50,30.20,29.90,3,0,17,0.79
2014-8-27,78,70,64,66,61,56,86,74,58,29.99,29.87,4,1,8,0.00
2014-8-28,75,69,65,60,56,52,80,65,46,29.90,29.71,5,2,12,0.26
2014-8-29,89,74,66,74,62,27,99,75,13,29.76,29.56,4,1,15,0.96